createdAt,value
2022-09-23T00:01:08.920Z,4.78
2022-09-23T00:03:37.511Z,4.22
2022-09-23T00:06:10.981Z,4.20
2022-09-23T00:08:37.956Z,3.97
2022-09-23T00:11:10.906Z,5.30
2022-09-23T00:13:38.979Z,6.03
2022-09-23T00:16:24.224Z,5.75
2022-09-23T00:18:50.967Z,6.20
2022-09-23T00:21:19.069Z,5.95
2022-09-23T00:23:45.804Z,7.18
2022-09-23T00:26:16.502Z,6.55
2022-09-23T00:28:43.898Z,5.80
2022-09-23T00:31:17.312Z,6.40
2022-09-23T00:33:44.465Z,6.25
2022-09-23T00:36:16.441Z,6.85
2022-09-23T00:38:46.198Z,7.43
2022-09-23T00:41:16.160Z,6.75
2022-09-23T00:43:49.849Z,6.43
2022-09-23T00:46:25.279Z,6.28
2022-09-23T00:48:58.645Z,7.13
2022-09-23T00:51:31.661Z,6.83
2022-09-23T00:53:58.753Z,7.25
2022-09-23T00:56:25.637Z,6.25
2022-09-23T00:58:53.915Z,5.93
2022-09-23T01:01:21.508Z,5.80
2022-09-23T01:03:49.533Z,5.78
2022-09-23T01:06:16.369Z,5.10
2022-09-23T01:08:46.037Z,4.95
2022-09-23T01:11:43.210Z,5.18
2022-09-23T01:14:32.759Z,5.53
2022-09-23T01:17:09.188Z,6.35
2022-09-23T01:20:06.901Z,4.85
2022-09-23T01:22:40.784Z,4.97
2022-09-23T01:25:16.468Z,4.88
2022-09-23T01:27:52.393Z,6.22
2022-09-23T01:30:49.314Z,5.50
2022-09-23T01:33:15.932Z,5.65
2022-09-23T01:35:45.880Z,5.50
2022-09-23T01:38:28.149Z,5.72
2022-09-23T01:41:08.971Z,6.40
2022-09-23T01:43:54.912Z,5.68
2022-09-23T01:46:32.238Z,6.93
2022-09-23T01:49:05.245Z,5.75
2022-09-23T01:51:37.596Z,6.00
2022-09-23T01:54:34.232Z,6.03
2022-09-23T01:57:21.967Z,6.00
2022-09-23T01:59:55.175Z,5.30
2022-09-23T02:02:49.977Z,6.03
2022-09-23T02:05:24.840Z,5.95
2022-09-23T02:08:22.260Z,5.70
2022-09-23T02:11:08.532Z,5.25
2022-09-23T02:13:53.259Z,5.45
2022-09-23T02:16:34.532Z,5.15
2022-09-23T02:19:08.010Z,4.53
2022-09-23T02:21:40.641Z,6.15
2022-09-23T02:24:14.946Z,5.60
2022-09-23T02:26:52.348Z,5.50
2022-09-23T02:29:35.276Z,4.88
2022-09-23T02:32:08.342Z,5.50
2022-09-23T02:34:45.784Z,5.78
2022-09-23T02:37:18.588Z,4.85
2022-09-23T02:40:04.137Z,4.80
2022-09-23T02:42:48.163Z,5.00
2022-09-23T02:45:15.015Z,5.18
2022-09-23T02:47:46.486Z,5.43
2022-09-23T02:50:13.982Z,5.72
2022-09-23T02:52:41.157Z,5.63
2022-09-23T02:55:09.165Z,5.40
2022-09-23T02:57:36.033Z,6.10
2022-09-23T03:00:03.013Z,5.60
2022-09-23T03:02:40.217Z,4.88
2022-09-23T03:05:12.833Z,5.82
2022-09-23T03:08:05.114Z,5.65
2022-09-23T03:11:04.433Z,5.47
2022-09-23T03:13:53.322Z,6.25
2022-09-23T03:16:27.989Z,6.10
2022-09-23T03:18:59.550Z,5.18
2022-09-23T03:21:31.686Z,5.68
2022-09-23T03:24:06.368Z,5.95
2022-09-23T03:26:37.918Z,6.43
2022-09-23T03:29:09.562Z,5.10
2022-09-23T03:31:40.702Z,6.18
2022-09-23T03:34:19.351Z,6.13
2022-09-23T03:37:02.560Z,6.43
2022-09-23T03:39:54.024Z,5.90
2022-09-23T03:42:27.348Z,5.60
2022-09-23T03:44:57.314Z,5.70
2022-09-23T03:47:27.014Z,5.68
2022-09-23T03:49:54.373Z,6.03
2022-09-23T03:52:23.494Z,6.07
2022-09-23T03:54:52.214Z,6.10
2022-09-23T03:57:22.068Z,6.00
2022-09-23T03:59:50.759Z,6.05
2022-09-23T04:02:18.683Z,6.47
2022-09-23T04:04:45.699Z,5.72
2022-09-23T04:07:13.224Z,7.20
2022-09-23T04:09:39.852Z,5.40
2022-09-23T04:12:07.105Z,6.15
2022-09-23T04:14:33.862Z,6.53
2022-09-23T04:17:00.483Z,5.90
2022-09-23T04:19:27.090Z,5.97
2022-09-23T04:21:53.850Z,5.50
2022-09-23T04:24:20.969Z,5.68
2022-09-23T04:26:52.395Z,5.40
2022-09-23T04:29:19.792Z,6.45
2022-09-23T04:31:46.520Z,7.03
2022-09-23T04:34:13.917Z,7.40
2022-09-23T04:36:40.856Z,7.85
2022-09-23T04:39:07.769Z,7.90
2022-09-23T04:41:34.728Z,7.70
2022-09-23T04:44:02.119Z,7.60
2022-09-23T04:46:28.868Z,8.35
2022-09-23T04:48:55.569Z,8.65
2022-09-23T04:51:24.881Z,10.15
2022-09-23T04:53:52.937Z,10.13
2022-09-23T04:56:22.605Z,8.85
2022-09-23T04:58:50.641Z,9.13
2022-09-23T05:01:24.931Z,7.90
2022-09-23T05:03:57.354Z,7.97
2022-09-23T05:06:25.407Z,7.20
2022-09-23T05:08:54.499Z,6.93
2022-09-23T05:11:21.919Z,7.03
2022-09-23T05:13:50.830Z,6.90
2022-09-23T05:16:18.242Z,6.88
2022-09-23T05:18:46.266Z,7.65
2022-09-23T05:21:15.142Z,6.80
2022-09-23T05:23:42.942Z,7.30
2022-09-23T05:26:13.347Z,7.65
2022-09-23T05:28:40.510Z,7.63
2022-09-23T05:31:08.352Z,6.25
2022-09-23T05:33:36.885Z,6.72
2022-09-23T05:36:04.803Z,6.40
2022-09-23T05:38:32.105Z,6.90
2022-09-23T05:41:01.109Z,7.30
2022-09-23T05:43:28.607Z,6.75
2022-09-23T05:46:07.803Z,6.50
2022-09-23T05:48:36.065Z,7.35
2022-09-23T05:51:03.530Z,6.80
2022-09-23T05:53:31.278Z,6.90
2022-09-23T05:55:58.137Z,7.13
2022-09-23T05:58:25.370Z,6.60
2022-09-23T06:00:52.436Z,6.70
2022-09-23T06:03:20.911Z,7.35
2022-09-23T06:05:48.514Z,6.90
2022-09-23T06:08:15.619Z,7.07
2022-09-23T06:10:44.793Z,6.53
2022-09-23T06:13:11.613Z,6.97
2022-09-23T06:15:39.418Z,7.10
2022-09-23T06:18:07.037Z,7.90
2022-09-23T06:20:35.517Z,7.88
2022-09-23T06:23:09.989Z,8.15
2022-09-23T06:25:38.590Z,7.90
2022-09-23T06:28:06.901Z,7.35
2022-09-23T06:30:34.925Z,7.55
2022-09-23T06:33:01.990Z,7.22
2022-09-23T06:35:28.818Z,8.68
2022-09-23T06:37:55.601Z,8.85
2022-09-23T06:40:23.422Z,8.82
